createdAt,value
2019-01-29T00:02:52.294Z,1001.89
2019-01-29T00:03:52.291Z,1001.88
2019-01-29T00:04:52.312Z,1001.93
2019-01-29T00:05:52.392Z,1001.96
2019-01-29T00:06:52.665Z,1001.96
2019-01-29T00:07:52.448Z,1001.97
2019-01-29T00:08:52.443Z,1001.99
2019-01-29T00:09:52.450Z,1002.01
2019-01-29T00:10:52.541Z,1002.01
2019-01-29T00:12:52.599Z,1001.99
2019-01-29T00:13:52.874Z,1002.00
2019-01-29T00:14:52.604Z,1001.98
2019-01-29T00:15:52.636Z,1001.98
2019-01-29T00:16:52.667Z,1001.95
2019-01-29T00:17:52.696Z,1001.98
2019-01-29T00:19:52.797Z,1001.98
2019-01-29T00:20:53.086Z,1002.04
2019-01-29T00:21:52.859Z,1001.99
2019-01-29T00:22:52.889Z,1001.99
2019-01-29T00:23:52.869Z,1002.03
2019-01-29T00:24:52.903Z,1002.01
2019-01-29T00:25:52.980Z,1002.04
2019-01-29T00:26:52.961Z,1002.06
2019-01-29T00:27:53.054Z,1002.12
2019-01-29T00:28:53.020Z,1002.10
2019-01-29T00:29:53.054Z,1002.13
2019-01-29T00:30:53.082Z,1002.12
2019-01-29T00:31:53.162Z,1002.13
2019-01-29T00:32:53.132Z,1002.12
2019-01-29T00:33:53.467Z,1002.13
2019-01-29T00:35:53.277Z,1002.17
2019-01-29T00:38:53.372Z,1002.11
2019-01-29T00:39:53.342Z,1002.11
2019-01-29T00:40:53.669Z,1002.11
2019-01-29T00:42:53.445Z,1002.16
2019-01-29T00:43:53.505Z,1002.14
2019-01-29T00:44:53.536Z,1002.13
2019-01-29T00:45:53.576Z,1002.13
2019-01-29T00:46:53.550Z,1002.14
2019-01-29T00:47:53.877Z,1002.12
2019-01-29T00:48:53.613Z,1002.15
2019-01-29T00:49:53.635Z,1002.17
2019-01-29T00:50:53.719Z,1002.14
2019-01-29T00:52:53.720Z,1002.20
2019-01-29T00:53:53.804Z,1002.15
2019-01-29T00:55:54.108Z,1002.17
2019-01-29T00:56:53.843Z,1002.19
2019-01-29T00:57:53.918Z,1002.16
2019-01-29T00:58:53.945Z,1002.16
2019-01-29T00:59:53.982Z,1002.20
2019-01-29T01:00:53.959Z,1002.21
2019-01-29T01:01:53.987Z,1002.21
2019-01-29T01:02:54.325Z,1002.23
2019-01-29T01:03:54.098Z,1002.22
2019-01-29T01:04:54.074Z,1002.20
2019-01-29T01:05:54.157Z,1002.23
2019-01-29T01:06:54.139Z,1002.20
2019-01-29T01:07:54.167Z,1002.21
2019-01-29T01:08:54.246Z,1002.16
2019-01-29T01:09:57.370Z,1002.18
2019-01-29T01:10:54.255Z,1002.15
2019-01-29T01:11:54.284Z,1002.16
2019-01-29T01:12:54.310Z,1002.18
2019-01-29T01:14:54.424Z,1002.21
2019-01-29T01:15:54.403Z,1002.22
2019-01-29T01:16:54.728Z,1002.19
2019-01-29T01:17:54.515Z,1002.25
2019-01-29T01:18:54.498Z,1002.26
2019-01-29T01:19:54.533Z,1002.27
2019-01-29T01:20:54.551Z,1002.33
2019-01-29T01:22:54.658Z,1002.32
2019-01-29T01:23:54.935Z,1002.32
2019-01-29T01:24:54.965Z,1002.37
2019-01-29T01:25:54.743Z,1002.38
2019-01-29T01:26:54.778Z,1002.41
2019-01-29T01:27:54.752Z,1002.39
2019-01-29T01:28:54.794Z,1002.47
2019-01-29T01:29:54.873Z,1002.47
2019-01-29T01:30:55.153Z,1002.48
2019-01-29T01:32:54.956Z,1002.47
2019-01-29T01:33:54.981Z,1002.46
2019-01-29T01:34:55.012Z,1002.53
2019-01-29T01:35:54.993Z,1002.55
2019-01-29T01:36:55.065Z,1002.53
2019-01-29T01:37:55.346Z,1002.56
2019-01-29T01:38:55.122Z,1002.53
2019-01-29T01:39:55.161Z,1002.52
2019-01-29T01:40:55.184Z,1002.55
2019-01-29T01:41:55.233Z,1002.55
2019-01-29T01:42:55.194Z,1002.57
2019-01-29T01:43:55.568Z,1002.56
2019-01-29T01:44:55.257Z,1002.52
2019-01-29T01:45:55.280Z,1002.53
2019-01-29T01:46:55.417Z,1002.58
2019-01-29T01:47:55.390Z,1002.55
2019-01-29T01:48:55.415Z,1002.60
2019-01-29T01:49:55.703Z,1002.58
2019-01-29T01:50:55.427Z,1002.60
2019-01-29T01:52:59.274Z,1002.58
2019-01-29T01:53:55.567Z,1002.65
2019-01-29T01:54:55.596Z,1002.60
2019-01-29T01:55:55.927Z,1002.61
2019-01-29T01:56:55.605Z,1002.63
2019-01-29T01:57:55.632Z,1002.60
2019-01-29T01:58:55.716Z,1002.60
2019-01-29T01:59:55.692Z,1002.58
2019-01-29T02:01:55.791Z,1002.56
2019-01-29T02:02:56.076Z,1002.58
2019-01-29T02:03:55.859Z,1002.61
2019-01-29T02:04:55.897Z,1002.62
2019-01-29T02:05:55.929Z,1002.63
2019-01-29T02:06:55.902Z,1002.59
2019-01-29T02:07:55.981Z,1002.61
2019-01-29T02:08:56.014Z,1002.66
2019-01-29T02:10:56.309Z,1002.67
2019-01-29T02:11:56.040Z,1002.68
2019-01-29T02:13:56.147Z,1002.69
2019-01-29T02:14:56.182Z,1002.73
2019-01-29T02:15:56.206Z,1002.76
2019-01-29T02:16:56.488Z,1002.72
2019-01-29T02:17:56.278Z,1002.73
2019-01-29T02:18:56.300Z,1002.75
2019-01-29T02:19:56.279Z,1002.72
2019-01-29T02:20:56.309Z,1002.72
2019-01-29T02:27:56.567Z,1002.75
2019-01-29T02:29:56.883Z,1002.82
2019-01-29T02:31:56.686Z,1002.79
2019-01-29T02:32:56.662Z,1002.82
2019-01-29T02:33:56.743Z,1002.84
2019-01-29T02:35:56.754Z,1002.87
2019-01-29T02:36:57.081Z,1002.84
2019-01-29T02:40:56.961Z,1002.85
2019-01-29T02:42:57.002Z,1002.87
2019-01-29T02:43:57.290Z,1002.88
2019-01-29T02:44:57.018Z,1002.88
2019-01-29T02:45:57.096Z,1002.88
2019-01-29T02:46:57.089Z,1002.92
2019-01-29T02:47:57.160Z,1002.91
2019-01-29T02:48:57.183Z,1002.89
2019-01-29T02:49:57.216Z,1002.90
2019-01-29T02:50:57.486Z,1002.91
2019-01-29T02:52:57.299Z,1002.96
2019-01-29T02:55:57.383Z,1002.98
2019-01-29T02:56:57.362Z,1002.96
2019-01-29T02:59:57.748Z,1002.94
2019-01-29T03:00:57.526Z,1002.96
2019-01-29T03:01:57.510Z,1002.98
2019-01-29T03:02:57.590Z,1002.95
2019-01-29T03:03:57.563Z,1002.96
2019-01-29T03:04:57.664Z,1002.97
2019-01-29T03:05:57.675Z,1002.97
2019-01-29T03:06:57.709Z,1002.93
2019-01-29T03:07:57.682Z,1002.92
2019-01-29T03:08:57.762Z,1002.95
2019-01-29T03:10:57.774Z,1002.98
2019-01-29T03:11:57.851Z,1002.99
2019-01-29T03:14:58.198Z,1003.02
2019-01-29T03:15:57.923Z,1003.03
2019-01-29T03:18:58.058Z,1003.00
2019-01-29T03:19:58.087Z,1002.97
2019-01-29T03:20:58.065Z,1003.01
2019-01-29T03:22:58.429Z,1003.01
2019-01-29T03:24:58.236Z,1003.03
2019-01-29T03:27:58.280Z,1003.00
2019-01-29T03:28:58.358Z,1003.03
2019-01-29T03:29:58.680Z,1003.06
2019-01-29T03:30:58.368Z,1003.02
2019-01-29T03:31:58.447Z,1003.01
2019-01-29T03:32:58.424Z,1003.03
2019-01-29T03:35:58.561Z,1003.03
2019-01-29T03:36:58.836Z,1003.02
2019-01-29T03:37:58.613Z,1003.05
2019-01-29T03:38:58.596Z,1003.04
2019-01-29T03:40:58.710Z,1003.04
2019-01-29T03:41:58.740Z,1003.03
2019-01-29T03:43:58.808Z,1003.01
2019-01-29T03:44:59.128Z,1003.04
2019-01-29T03:45:58.848Z,1003.05
2019-01-29T03:47:58.921Z,1003.02
2019-01-29T03:48:58.941Z,1003.00
2019-01-29T03:49:58.994Z,1003.06
2019-01-29T03:50:59.018Z,1003.04
2019-01-29T03:51:59.276Z,1003.04
2019-01-29T03:52:59.092Z,1003.02
2019-01-29T03:53:59.101Z,1003.04
2019-01-29T03:54:59.064Z,1003.06
2019-01-29T03:55:59.147Z,1003.09
2019-01-29T03:56:59.234Z,1003.05
2019-01-29T03:57:59.153Z,1003.10
2019-01-29T03:58:59.481Z,1003.10
2019-01-29T04:00:59.268Z,1003.08
2019-01-29T04:03:59.373Z,1003.09
2019-01-29T04:04:59.416Z,1003.05
2019-01-29T04:05:59.751Z,1003.05
2019-01-29T04:06:59.488Z,1003.06
2019-01-29T04:07:59.499Z,1003.05
2019-01-29T04:09:59.560Z,1003.04
2019-01-29T04:10:59.548Z,1003.03
2019-01-29T04:11:59.612Z,1003.05
2019-01-29T04:12:59.897Z,1003.07
2019-01-29T04:15:59.823Z,1003.11
2019-01-29T04:16:59.865Z,1003.12
2019-01-29T04:17:59.790Z,1003.11
2019-01-29T04:18:59.777Z,1003.13
2019-01-29T04:20:00.290Z,1003.15
2019-01-29T04:20:59.877Z,1003.13
2019-01-29T04:24:59.995Z,1003.15
2019-01-29T04:27:00.053Z,1003.20
2019-01-29T04:28:00.378Z,1003.19
2019-01-29T04:29:00.273Z,1003.14
2019-01-29T04:30:00.196Z,1003.16
2019-01-29T04:31:00.127Z,1003.16
2019-01-29T04:32:00.207Z,1003.14
2019-01-29T04:34:00.293Z,1003.17
2019-01-29T04:35:00.589Z,1003.15
2019-01-29T04:36:00.277Z,1003.12
2019-01-29T04:37:00.347Z,1003.16
2019-01-29T04:38:00.384Z,1003.11
2019-01-29T04:39:00.414Z,1003.12
2019-01-29T04:41:00.463Z,1003.11
2019-01-29T04:43:00.776Z,1003.08
2019-01-29T04:44:00.510Z,1003.11
2019-01-29T04:45:00.585Z,1003.09
2019-01-29T04:47:00.595Z,1003.10
2019-01-29T04:48:00.672Z,1003.06
2019-01-29T04:49:00.719Z,1003.08
2019-01-29T04:50:01.084Z,1003.09
2019-01-29T04:51:00.758Z,1003.07
2019-01-29T04:52:00.818Z,1003.06
2019-01-29T04:53:00.778Z,1003.07
2019-01-29T04:54:00.858Z,1003.07
2019-01-29T04:55:00.862Z,1003.08
2019-01-29T04:56:00.858Z,1003.07
2019-01-29T04:57:01.267Z,1003.05
2019-01-29T04:59:00.995Z,1003.04
2019-01-29T05:00:00.975Z,1003.03
2019-01-29T05:01:01.098Z,1003.01
2019-01-29T05:02:01.080Z,1002.97
2019-01-29T05:03:01.111Z,1002.96
2019-01-29T05:04:01.447Z,1002.96
2019-01-29T05:05:01.177Z,1002.94
2019-01-29T05:06:01.161Z,1002.97
2019-01-29T05:07:01.235Z,1002.94
2019-01-29T05:08:01.218Z,1002.93
2019-01-29T05:09:01.236Z,1002.92
2019-01-29T05:10:01.348Z,1002.93
2019-01-29T05:11:01.634Z,1002.91
2019-01-29T05:12:01.386Z,1002.91
2019-01-29T05:13:01.355Z,1002.94
2019-01-29T05:14:01.387Z,1002.93
2019-01-29T05:15:01.421Z,1002.96
2019-01-29T05:16:01.603Z,1002.99
2019-01-29T05:17:01.476Z,1002.99
2019-01-29T05:18:01.556Z,1002.98
2019-01-29T05:19:01.588Z,1002.97
2019-01-29T05:20:01.566Z,1003.00
2019-01-29T05:21:01.797Z,1002.97
2019-01-29T05:22:01.674Z,1002.96
2019-01-29T05:23:01.660Z,1002.96
2019-01-29T05:24:06.979Z,1002.95
2019-01-29T05:25:01.712Z,1002.97
2019-01-29T05:26:01.785Z,1002.95
2019-01-29T05:27:01.776Z,1002.95
2019-01-29T05:28:01.800Z,1002.94
2019-01-29T05:29:01.991Z,1002.96
2019-01-29T05:30:02.155Z,1002.95
2019-01-29T05:31:01.936Z,1002.95
2019-01-29T05:32:02.057Z,1002.94
2019-01-29T05:33:01.946Z,1002.93
2019-01-29T05:34:02.035Z,1002.93
2019-01-29T05:35:02.053Z,1002.96
2019-01-29T05:36:02.332Z,1002.95
2019-01-29T05:37:02.071Z,1002.89
2019-01-29T05:38:04.162Z,1002.92
2019-01-29T05:39:02.193Z,1002.90
2019-01-29T05:40:02.207Z,1002.94
2019-01-29T05:41:02.192Z,1002.96
2019-01-29T05:42:02.530Z,1002.91
2019-01-29T05:43:02.250Z,1002.93
2019-01-29T05:44:02.270Z,1002.94
2019-01-29T05:45:02.395Z,1002.90
2019-01-29T05:46:02.389Z,1002.91
2019-01-29T05:47:02.357Z,1002.87
2019-01-29T05:48:02.690Z,1002.90
2019-01-29T05:49:02.465Z,1002.87
2019-01-29T05:50:02.494Z,1002.86
2019-01-29T05:52:02.561Z,1002.88
2019-01-29T05:53:02.614Z,1002.81
2019-01-29T05:56:02.630Z,1002.85
2019-01-29T05:57:02.704Z,1002.83
2019-01-29T05:58:02.731Z,1002.85
2019-01-29T05:59:02.760Z,1002.86
2019-01-29T06:00:02.840Z,1002.83
2019-01-29T06:01:02.772Z,1002.81
2019-01-29T06:02:02.851Z,1002.82
2019-01-29T06:03:02.874Z,1002.80
2019-01-29T06:04:02.861Z,1002.79
2019-01-29T06:05:02.881Z,1002.78
2019-01-29T06:06:02.969Z,1002.78
2019-01-29T06:07:02.991Z,1002.76
2019-01-29T06:08:05.129Z,1002.80
2019-01-29T06:09:03.356Z,1002.75
2019-01-29T06:10:03.078Z,1002.76
2019-01-29T06:11:03.211Z,1002.76
2019-01-29T06:12:03.096Z,1002.78
2019-01-29T06:13:03.173Z,1002.80
2019-01-29T06:14:03.203Z,1002.77
2019-01-29T06:15:03.174Z,1002.79
2019-01-29T06:16:03.510Z,1002.79
2019-01-29T06:17:03.235Z,1002.82
2019-01-29T06:18:03.313Z,1002.82
2019-01-29T06:19:03.293Z,1002.85
2019-01-29T06:20:03.378Z,1002.80
2019-01-29T06:22:03.446Z,1002.79
2019-01-29T06:24:03.798Z,1002.85
2019-01-29T06:25:03.479Z,1002.87
2019-01-29T06:28:03.565Z,1002.84
2019-01-29T06:29:03.654Z,1002.83
2019-01-29T06:30:03.689Z,1002.84
2019-01-29T06:32:04.027Z,1002.84
2019-01-29T06:33:03.727Z,1002.83
2019-01-29T06:34:03.792Z,1002.84
2019-01-29T06:35:03.831Z,1002.83
2019-01-29T06:37:03.879Z,1002.84
2019-01-29T06:39:03.956Z,1002.84
2019-01-29T06:40:04.274Z,1002.83
2019-01-29T06:41:04.000Z,1002.85
2019-01-29T06:42:04.006Z,1002.83
2019-01-29T06:45:04.074Z,1002.84
2019-01-29T06:46:04.423Z,1002.83
2019-01-29T06:47:04.178Z,1002.85
2019-01-29T06:48:04.211Z,1002.87
2019-01-29T06:49:04.232Z,1002.90
2019-01-29T06:50:04.257Z,1002.90
2019-01-29T06:51:04.251Z,1002.93
2019-01-29T06:52:04.326Z,1002.93
2019-01-29T06:53:04.355Z,1002.94
2019-01-29T06:54:04.380Z,1002.94
2019-01-29T06:55:04.408Z,1002.93
2019-01-29T06:56:04.442Z,1002.98
2019-01-29T06:57:04.437Z,1002.99
2019-01-29T06:58:04.758Z,1003.01
2019-01-29T06:59:04.527Z,1003.04
2019-01-29T07:00:04.520Z,1003.06
2019-01-29T07:01:04.537Z,1003.03
2019-01-29T07:02:04.618Z,1003.05
2019-01-29T07:03:04.649Z,1003.05
2019-01-29T07:04:04.675Z,1003.01
2019-01-29T07:05:04.650Z,1003.05
2019-01-29T07:06:04.758Z,1003.02
2019-01-29T07:07:04.710Z,1003.04
2019-01-29T07:08:04.802Z,1003.08
2019-01-29T07:09:04.842Z,1003.05
2019-01-29T07:10:04.801Z,1003.09
2019-01-29T07:11:05.190Z,1003.08
2019-01-29T07:12:04.895Z,1003.08
2019-01-29T07:13:04.900Z,1003.09
2019-01-29T07:14:04.965Z,1003.07
2019-01-29T07:15:04.995Z,1003.05
2019-01-29T07:16:05.043Z,1003.08
2019-01-29T07:17:05.314Z,1003.07
2019-01-29T07:18:05.098Z,1003.07
2019-01-29T07:19:05.119Z,1003.05
2019-01-29T07:21:05.134Z,1003.08
2019-01-29T07:22:05.232Z,1003.10
2019-01-29T07:23:05.229Z,1003.07
2019-01-29T07:24:05.215Z,1003.05
2019-01-29T07:25:05.295Z,1003.05
2019-01-29T07:26:05.425Z,1003.09
2019-01-29T07:27:05.353Z,1003.06
2019-01-29T07:28:05.340Z,1003.04
2019-01-29T07:29:05.668Z,1003.02
2019-01-29T07:30:05.449Z,1003.02
2019-01-29T07:31:05.426Z,1002.98
2019-01-29T07:32:05.505Z,1003.01
2019-01-29T07:33:05.486Z,1003.01
2019-01-29T07:34:05.560Z,1003.02
2019-01-29T07:35:05.588Z,1003.03
2019-01-29T07:36:05.919Z,1003.03
2019-01-29T07:37:05.603Z,1003.03
2019-01-29T07:38:05.634Z,1003.07
2019-01-29T07:39:05.684Z,1003.04
2019-01-29T07:40:05.709Z,1003.07
2019-01-29T07:41:05.768Z,1003.08
2019-01-29T07:42:05.798Z,1003.07
2019-01-29T07:43:06.088Z,1003.10
2019-01-29T07:44:05.817Z,1003.11
2019-01-29T07:47:05.949Z,1003.07
2019-01-29T07:48:05.922Z,1003.07
2019-01-29T07:49:05.954Z,1003.10
2019-01-29T07:50:06.334Z,1003.07
2019-01-29T07:52:06.099Z,1003.04
2019-01-29T07:53:06.130Z,1003.05
2019-01-29T07:54:06.262Z,1003.03
2019-01-29T07:55:06.250Z,1003.01
2019-01-29T07:56:06.157Z,1003.02
2019-01-29T07:57:06.218Z,1003.03
2019-01-29T07:58:06.373Z,1003.06
2019-01-29T07:59:06.332Z,1003.05
2019-01-29T08:00:06.335Z,1003.01
2019-01-29T08:01:06.330Z,1003.00
2019-01-29T08:02:06.406Z,1003.00
2019-01-29T08:03:06.367Z,1003.00
2019-01-29T08:04:06.455Z,1003.00
2019-01-29T08:05:06.498Z,1002.98
2019-01-29T08:06:06.467Z,1002.98
2019-01-29T08:07:06.542Z,1002.98
2019-01-29T08:08:06.523Z,1002.94
2019-01-29T08:09:06.543Z,1002.99
2019-01-29T08:10:06.596Z,1002.97
2019-01-29T08:11:06.658Z,1002.98
2019-01-29T08:12:06.643Z,1002.93
2019-01-29T08:13:06.705Z,1002.94
2019-01-29T08:14:06.755Z,1002.97
2019-01-29T08:15:07.050Z,1002.98
2019-01-29T08:16:06.808Z,1002.99
2019-01-29T08:17:06.785Z,1002.95
2019-01-29T08:18:06.869Z,1003.00
2019-01-29T08:19:06.888Z,1002.96
2019-01-29T08:20:07.582Z,1002.96
2019-01-29T08:21:07.258Z,1003.00
2019-01-29T08:22:06.995Z,1002.98
2019-01-29T08:23:07.100Z,1002.96
2019-01-29T08:24:07.058Z,1002.94
2019-01-29T08:25:07.071Z,1002.98
2019-01-29T08:26:07.054Z,1002.93
2019-01-29T08:27:07.138Z,1002.97
2019-01-29T08:28:07.164Z,1002.99
2019-01-29T08:29:07.185Z,1002.96
2019-01-29T08:30:07.261Z,1002.91
2019-01-29T08:31:07.550Z,1002.93
2019-01-29T08:32:07.281Z,1002.93
2019-01-29T08:33:07.286Z,1002.96
2019-01-29T08:34:07.693Z,1002.95
2019-01-29T08:35:07.384Z,1002.94
2019-01-29T08:36:07.402Z,1002.92
2019-01-29T08:37:07.515Z,1002.97
2019-01-29T08:38:07.403Z,1002.94
2019-01-29T08:39:07.439Z,1002.93
2019-01-29T08:40:07.462Z,1002.91
2019-01-29T08:41:07.854Z,1002.93
2019-01-29T08:42:07.581Z,1002.93
2019-01-29T08:43:07.635Z,1002.91
2019-01-29T08:44:07.588Z,1002.90
2019-01-29T08:45:07.727Z,1002.94
2019-01-29T08:46:07.707Z,1002.90
2019-01-29T08:47:07.670Z,1002.87
2019-01-29T08:48:08.062Z,1002.84
2019-01-29T08:49:07.815Z,1002.82
2019-01-29T08:50:07.868Z,1002.83
2019-01-29T08:51:07.895Z,1002.86
2019-01-29T08:52:07.956Z,1002.82
2019-01-29T08:53:07.906Z,1002.85
2019-01-29T08:54:07.946Z,1002.81
2019-01-29T08:55:10.832Z,1002.85
2019-01-29T08:57:09.053Z,1002.80
2019-01-29T08:58:08.053Z,1002.82
2019-01-29T08:59:08.104Z,1002.79
2019-01-29T09:00:08.083Z,1002.76
2019-01-29T09:01:08.859Z,1002.71
2019-01-29T09:02:08.355Z,1002.69
2019-01-29T09:03:08.371Z,1002.72
2019-01-29T09:04:08.229Z,1002.69
2019-01-29T09:05:08.376Z,1002.72
2019-01-29T09:06:08.340Z,1002.67
2019-01-29T09:07:08.266Z,1002.66
2019-01-29T09:08:08.377Z,1002.65
2019-01-29T09:09:08.399Z,1002.65
2019-01-29T09:10:08.436Z,1002.66
2019-01-29T09:11:08.510Z,1002.66
2019-01-29T09:12:08.493Z,1002.65
2019-01-29T09:13:08.583Z,1002.68
2019-01-29T09:14:08.856Z,1002.65
2019-01-29T09:15:08.537Z,1002.65
2019-01-29T09:16:08.547Z,1002.65
2019-01-29T09:17:08.719Z,1002.63
2019-01-29T09:18:08.596Z,1002.63
2019-01-29T09:19:08.628Z,1002.63
2019-01-29T09:20:08.958Z,1002.61
2019-01-29T09:21:08.741Z,1002.61
2019-01-29T09:22:08.764Z,1002.58
2019-01-29T09:24:08.774Z,1002.57
2019-01-29T09:25:08.807Z,1002.50
2019-01-29T09:26:09.302Z,1002.53
2019-01-29T09:27:08.923Z,1002.54
2019-01-29T09:28:08.892Z,1002.50
2019-01-29T09:29:17.459Z,1002.53
2019-01-29T09:30:08.960Z,1002.51
2019-01-29T09:31:09.036Z,1002.45
2019-01-29T09:32:09.071Z,1002.48
2019-01-29T09:33:09.353Z,1002.41
2019-01-29T09:34:09.146Z,1002.43
2019-01-29T09:35:09.111Z,1002.38
2019-01-29T09:36:09.203Z,1002.41
2019-01-29T09:37:09.217Z,1002.40
2019-01-29T09:38:09.206Z,1002.39
2019-01-29T09:39:09.275Z,1002.36
2019-01-29T09:40:09.558Z,1002.36
2019-01-29T09:41:09.290Z,1002.37
2019-01-29T09:42:09.372Z,1002.33
2019-01-29T09:43:09.347Z,1002.34
2019-01-29T09:44:09.483Z,1002.32
2019-01-29T09:45:09.408Z,1002.30
2019-01-29T09:46:09.492Z,1002.35
2019-01-29T09:47:09.524Z,1002.35
2019-01-29T09:48:09.549Z,1002.29
2019-01-29T09:49:11.216Z,1002.30
2019-01-29T09:50:09.604Z,1002.30
2019-01-29T09:51:09.592Z,1002.30
2019-01-29T09:52:09.723Z,1002.30
2019-01-29T09:53:09.994Z,1002.27
2019-01-29T09:54:09.726Z,1002.28
2019-01-29T09:55:09.745Z,1002.31
2019-01-29T09:56:09.818Z,1002.26
2019-01-29T09:57:09.821Z,1002.28
2019-01-29T09:58:09.861Z,1002.27
2019-01-29T09:59:09.945Z,1002.29
2019-01-29T10:00:10.184Z,1002.26
2019-01-29T10:01:10.003Z,1002.24
2019-01-29T10:02:10.027Z,1002.20
2019-01-29T10:03:10.403Z,1002.20
2019-01-29T10:04:10.619Z,1002.18
2019-01-29T10:05:10.007Z,1002.18
2019-01-29T10:06:10.113Z,1002.20
2019-01-29T10:07:10.109Z,1002.18
2019-01-29T10:08:10.168Z,1002.14
2019-01-29T10:09:10.210Z,1002.12
2019-01-29T10:10:10.215Z,1002.17
2019-01-29T10:11:10.344Z,1002.13
2019-01-29T10:12:10.246Z,1002.13
2019-01-29T10:13:10.698Z,1002.13
2019-01-29T10:14:10.433Z,1002.14
2019-01-29T10:15:10.361Z,1002.10
2019-01-29T10:16:10.392Z,1002.14
2019-01-29T10:17:10.373Z,1002.12
2019-01-29T10:18:10.526Z,1002.11
2019-01-29T10:19:11.117Z,1002.06
2019-01-29T10:20:10.545Z,1002.10
2019-01-29T10:21:10.511Z,1002.11
2019-01-29T10:22:10.640Z,1002.06
2019-01-29T10:23:10.557Z,1002.04
2019-01-29T10:24:10.651Z,1002.07
2019-01-29T10:25:10.611Z,1002.05
2019-01-29T10:26:10.647Z,1002.07
2019-01-29T10:27:10.679Z,1002.06
2019-01-29T10:28:10.704Z,1001.99
2019-01-29T10:29:10.787Z,1002.01
2019-01-29T10:30:10.819Z,1002.03
2019-01-29T10:31:10.800Z,1002.03
2019-01-29T10:32:10.827Z,1002.00
2019-01-29T10:33:10.912Z,1002.01
2019-01-29T10:34:10.945Z,1001.96
2019-01-29T10:35:11.001Z,1001.98
2019-01-29T10:36:11.008Z,1001.95
2019-01-29T10:37:10.991Z,1001.99
2019-01-29T10:38:11.179Z,1001.98
2019-01-29T10:39:11.117Z,1001.92
2019-01-29T10:40:11.089Z,1001.91
2019-01-29T10:41:11.100Z,1001.88
2019-01-29T10:42:11.179Z,1001.92
2019-01-29T10:43:11.466Z,1001.90
2019-01-29T10:44:11.316Z,1001.83
2019-01-29T10:45:11.228Z,1001.85
2019-01-29T10:46:11.326Z,1001.84
2019-01-29T10:47:11.527Z,1001.78
2019-01-29T10:48:11.315Z,1001.75
2019-01-29T10:49:11.390Z,1001.74
2019-01-29T10:50:11.737Z,1001.75
2019-01-29T10:51:11.471Z,1001.66
2019-01-29T10:52:11.450Z,1001.68
2019-01-29T10:53:11.606Z,1001.73
2019-01-29T10:54:11.830Z,1001.70
2019-01-29T10:56:11.669Z,1001.61
2019-01-29T10:57:11.635Z,1001.59
2019-01-29T10:58:11.621Z,1001.57
2019-01-29T10:59:11.658Z,1001.53
2019-01-29T11:00:12.223Z,1001.54
2019-01-29T11:01:11.711Z,1001.55
2019-01-29T11:02:11.797Z,1001.53
2019-01-29T11:03:11.772Z,1001.54
2019-01-29T11:04:11.854Z,1001.53
2019-01-29T11:05:11.880Z,1001.52
2019-01-29T11:06:11.907Z,1001.46
2019-01-29T11:07:11.940Z,1001.41
2019-01-29T11:08:11.920Z,1001.41
2019-01-29T11:09:12.008Z,1001.43
2019-01-29T11:10:12.052Z,1001.39
2019-01-29T11:11:12.072Z,1001.40
2019-01-29T11:12:12.040Z,1001.35
2019-01-29T11:13:12.075Z,1001.37
2019-01-29T11:14:12.133Z,1001.33
2019-01-29T11:15:12.160Z,1001.35
2019-01-29T11:16:12.209Z,1001.32
2019-01-29T11:17:12.211Z,1001.28
2019-01-29T11:18:12.306Z,1001.28
2019-01-29T11:19:12.255Z,1001.28
2019-01-29T11:20:12.288Z,1001.25
2019-01-29T11:21:12.614Z,1001.24
2019-01-29T11:22:12.404Z,1001.17
2019-01-29T11:23:12.373Z,1001.16
2019-01-29T11:24:12.408Z,1001.15
2019-01-29T11:25:12.489Z,1001.13
2019-01-29T11:26:12.514Z,1001.17
2019-01-29T11:28:12.577Z,1001.12
2019-01-29T11:29:12.862Z,1001.12
2019-01-29T11:30:12.682Z,1001.13
2019-01-29T11:31:12.617Z,1001.09
2019-01-29T11:32:12.702Z,1001.07
2019-01-29T11:33:12.686Z,1001.08
2019-01-29T11:34:12.764Z,1001.07
2019-01-29T11:35:12.739Z,1001.07
2019-01-29T11:36:13.096Z,1001.03
2019-01-29T11:37:12.857Z,1001.01
2019-01-29T11:38:12.881Z,1000.95
2019-01-29T11:39:12.867Z,1000.94
2019-01-29T11:40:12.978Z,1000.92
2019-01-29T11:41:12.998Z,1000.91
2019-01-29T11:42:13.011Z,1000.89
2019-01-29T11:43:13.309Z,1000.87
2019-01-29T11:44:13.026Z,1000.79
2019-01-29T11:45:13.099Z,1000.77
2019-01-29T11:46:13.128Z,1000.75
2019-01-29T11:47:13.116Z,1000.72
2019-01-29T11:48:13.150Z,1000.73
2019-01-29T11:49:13.217Z,1000.71
2019-01-29T11:50:13.511Z,1000.69
2019-01-29T11:51:13.287Z,1000.67
2019-01-29T11:52:13.263Z,1000.67
2019-01-29T11:53:13.358Z,1000.69
2019-01-29T11:54:13.389Z,1000.69
2019-01-29T11:55:13.418Z,1000.66
2019-01-29T11:56:13.394Z,1000.63
2019-01-29T11:57:13.413Z,1000.64
2019-01-29T11:58:13.445Z,1000.64
2019-01-29T11:59:13.533Z,1000.59
2019-01-29T12:00:13.563Z,1000.57
2019-01-29T12:01:13.594Z,1000.56
2019-01-29T12:02:13.688Z,1000.58
2019-01-29T12:03:13.990Z,1000.58
2019-01-29T12:04:13.770Z,1000.54
2019-01-29T12:05:13.794Z,1000.55
2019-01-29T12:06:13.706Z,1000.52
2019-01-29T12:07:13.744Z,1000.57
2019-01-29T12:08:13.849Z,1000.53
2019-01-29T12:09:13.878Z,1000.54
2019-01-29T12:10:14.126Z,1000.49
2019-01-29T12:11:13.854Z,1000.52
2019-01-29T12:12:13.895Z,1000.49
2019-01-29T12:14:14.141Z,1000.44
2019-01-29T12:15:14.028Z,1000.43
2019-01-29T12:16:14.008Z,1000.39
2019-01-29T12:17:14.351Z,1000.44
2019-01-29T12:18:14.110Z,1000.39
2019-01-29T12:19:14.271Z,1000.39
2019-01-29T12:20:14.398Z,1000.38
2019-01-29T12:21:14.156Z,1000.37
2019-01-29T12:22:14.238Z,1000.37
2019-01-29T12:23:14.522Z,1000.32
2019-01-29T12:24:14.301Z,1000.33
2019-01-29T12:25:14.313Z,1000.28
2019-01-29T12:26:14.414Z,1000.28
2019-01-29T12:27:14.343Z,1000.22
2019-01-29T12:28:14.365Z,1000.19
2019-01-29T12:29:14.705Z,1000.18
2019-01-29T12:30:14.643Z,1000.20
2019-01-29T12:31:14.472Z,1000.16
2019-01-29T12:32:14.543Z,1000.07
2019-01-29T12:33:14.901Z,1000.09
2019-01-29T12:34:14.613Z,1000.10
2019-01-29T12:35:14.933Z,1000.10
2019-01-29T12:36:14.690Z,1000.12
2019-01-29T12:37:14.646Z,1000.12
2019-01-29T12:38:14.730Z,1000.12
2019-01-29T12:39:14.862Z,1000.08
2019-01-29T12:40:14.734Z,1000.08
2019-01-29T12:41:15.071Z,1000.04
2019-01-29T12:42:15.151Z,1000.06
2019-01-29T12:43:15.328Z,1000.08
2019-01-29T12:44:14.917Z,1000.05
2019-01-29T12:45:14.896Z,1000.04
2019-01-29T12:46:14.977Z,1000.08
2019-01-29T12:47:14.947Z,1000.02
2019-01-29T12:48:14.998Z,1000.01
2019-01-29T12:49:15.066Z,999.99
2019-01-29T12:50:15.100Z,999.97
2019-01-29T12:51:15.498Z,999.97
2019-01-29T12:52:15.122Z,999.93
2019-01-29T12:53:15.147Z,999.93
2019-01-29T12:54:15.248Z,999.93
2019-01-29T12:55:15.438Z,999.89
2019-01-29T12:56:21.372Z,999.88
2019-01-29T12:57:15.315Z,999.83
2019-01-29T12:59:15.326Z,999.85
2019-01-29T13:00:15.356Z,999.79
2019-01-29T13:01:15.773Z,999.82
2019-01-29T13:02:15.487Z,999.78
2019-01-29T13:03:15.445Z,999.72
2019-01-29T13:04:15.534Z,999.73
2019-01-29T13:05:15.511Z,999.72
2019-01-29T13:06:15.594Z,999.72
2019-01-29T13:07:15.689Z,999.72
2019-01-29T13:08:15.981Z,999.68
2019-01-29T13:09:15.633Z,999.68
2019-01-29T13:10:15.678Z,999.71
2019-01-29T13:11:15.913Z,999.66
2019-01-29T13:12:15.798Z,999.66
2019-01-29T13:13:15.859Z,999.62
2019-01-29T13:14:15.841Z,999.65
2019-01-29T13:15:16.151Z,999.61
2019-01-29T13:16:15.913Z,999.58
2019-01-29T13:17:15.897Z,999.63
2019-01-29T13:18:15.981Z,999.62
2019-01-29T13:19:15.954Z,999.63
2019-01-29T13:20:16.027Z,999.58
2019-01-29T13:21:16.403Z,999.57
2019-01-29T13:22:16.107Z,999.60
2019-01-29T13:23:16.199Z,999.58
2019-01-29T13:24:16.176Z,999.54
2019-01-29T13:25:16.208Z,999.51
2019-01-29T13:26:16.216Z,999.53
2019-01-29T13:27:16.388Z,999.45
2019-01-29T13:28:16.506Z,999.51
2019-01-29T13:29:16.253Z,999.47
2019-01-29T13:30:16.345Z,999.45
2019-01-29T13:31:16.380Z,999.43
2019-01-29T13:32:16.352Z,999.48
2019-01-29T13:33:16.750Z,999.48
2019-01-29T13:34:16.547Z,999.47